createdAt,value
2022-09-15T00:01:10.352Z,98649.28
2022-09-15T00:03:38.287Z,98637.37
2022-09-15T00:06:06.398Z,98618.84
2022-09-15T00:08:33.719Z,98608.84
2022-09-15T00:11:10.144Z,98596.81
2022-09-15T00:13:38.684Z,98631.84
2022-09-15T00:16:06.803Z,98636.84
2022-09-15T00:18:34.926Z,98632.03
2022-09-15T00:21:18.328Z,98627.50
2022-09-15T00:23:46.551Z,98642.69
2022-09-15T00:26:16.818Z,98654.59
2022-09-15T00:28:44.513Z,98669.06
2022-09-15T00:31:14.574Z,98683.31
2022-09-15T00:33:42.142Z,98686.69
2022-09-15T00:36:11.288Z,98692.63
2022-09-15T00:38:39.572Z,98720.94
2022-09-15T00:41:08.586Z,98719.22
2022-09-15T00:43:47.978Z,98721.25
2022-09-15T00:46:19.985Z,98726.06
2022-09-15T00:49:10.417Z,98729.22
2022-09-15T00:51:57.737Z,98726.91
2022-09-15T00:54:32.798Z,98735.56
2022-09-15T00:57:02.826Z,98722.69
2022-09-15T00:59:32.212Z,98714.88
2022-09-15T01:02:30.537Z,98707.53
2022-09-15T01:04:58.884Z,98714.28
2022-09-15T01:07:37.854Z,98715.34
2022-09-15T01:10:15.445Z,98702.72
2022-09-15T01:12:43.223Z,98697.81
2022-09-15T01:15:10.797Z,98703.91
2022-09-15T01:20:54.768Z,98693.16
2022-09-15T01:23:40.360Z,98704.69
2022-09-15T01:26:43.253Z,98704.34
2022-09-15T01:29:38.189Z,98704.69
2022-09-15T01:32:25.897Z,98706.63
2022-09-15T01:35:08.370Z,98702.53
2022-09-15T01:37:39.674Z,98711.06
2022-09-15T01:40:09.774Z,98703.97
2022-09-15T01:42:39.092Z,98705.47
2022-09-15T01:45:14.291Z,98709.16
2022-09-15T01:47:41.940Z,98703.03
2022-09-15T01:50:11.615Z,98721.75
2022-09-15T01:52:41.582Z,98727.19
2022-09-15T01:55:15.027Z,98715.25
2022-09-15T01:57:42.804Z,98724.97
2022-09-15T02:00:11.130Z,98715.22
2022-09-15T02:02:42.987Z,98718.56
2022-09-15T02:05:33.974Z,98720.50
2022-09-15T02:08:08.749Z,98708.13
2022-09-15T02:10:47.060Z,98705.81
2022-09-15T02:13:19.518Z,98710.56
2022-09-15T02:15:51.749Z,98704.56
2022-09-15T02:18:24.312Z,98700.34
2022-09-15T02:20:54.855Z,98710.59
2022-09-15T02:23:28.775Z,98699.63
2022-09-15T02:26:05.049Z,98717.72
2022-09-15T02:28:35.764Z,98716.84
2022-09-15T02:31:05.835Z,98708.56
2022-09-15T02:33:37.502Z,98712.37
2022-09-15T02:36:05.190Z,98715.34
2022-09-15T02:38:37.330Z,98706.50
2022-09-15T02:41:05.822Z,98702.50
2022-09-15T02:43:34.088Z,98703.03
2022-09-15T02:46:01.468Z,98704.31
2022-09-15T02:48:28.778Z,98699.16
2022-09-15T02:50:56.363Z,98710.16
2022-09-15T02:53:23.815Z,98708.50
2022-09-15T02:55:51.135Z,98709.84
2022-09-15T02:58:18.790Z,98710.12
2022-09-15T03:00:46.142Z,98715.19
2022-09-15T03:03:13.511Z,98713.28
2022-09-15T03:05:41.059Z,98705.47
2022-09-15T03:08:08.401Z,98722.97
2022-09-15T03:10:35.719Z,98716.50
2022-09-15T03:13:03.365Z,98721.00
2022-09-15T03:15:30.730Z,98720.31
2022-09-15T03:17:58.048Z,98725.16
2022-09-15T03:20:30.417Z,98721.34
2022-09-15T03:22:57.897Z,98722.97
2022-09-15T03:25:26.961Z,98717.53
2022-09-15T03:27:54.816Z,98718.88
2022-09-15T03:30:22.257Z,98714.22
2022-09-15T03:32:49.623Z,98709.34
2022-09-15T03:35:17.233Z,98719.84
2022-09-15T03:37:44.580Z,98720.94
2022-09-15T03:40:11.979Z,98711.47
2022-09-15T03:42:39.630Z,98711.09
2022-09-15T03:45:07.439Z,98704.09
2022-09-15T03:47:34.780Z,98709.28
2022-09-15T03:50:02.493Z,98717.53
2022-09-15T03:52:31.933Z,98723.41
2022-09-15T03:54:59.425Z,98729.81
2022-09-15T03:57:27.029Z,98736.06
2022-09-15T03:59:54.368Z,98736.53
2022-09-15T04:02:21.752Z,98736.06
2022-09-15T04:04:49.491Z,98743.16
2022-09-15T04:07:16.913Z,98747.06
2022-09-15T04:09:44.251Z,98745.25
2022-09-15T04:12:11.859Z,98741.19
2022-09-15T04:14:39.172Z,98742.41
2022-09-15T04:17:06.582Z,98731.13
2022-09-15T04:19:34.157Z,98732.62
2022-09-15T04:22:01.448Z,98734.88
2022-09-15T04:24:28.780Z,98737.31
2022-09-15T04:26:56.387Z,98731.06
2022-09-15T04:29:24.745Z,98738.22
2022-09-15T04:31:53.041Z,98741.59
2022-09-15T04:34:20.671Z,98755.69
2022-09-15T04:36:48.204Z,98776.78
2022-09-15T04:39:15.542Z,98777.78
2022-09-15T04:41:43.132Z,98769.03
2022-09-15T04:44:10.469Z,98776.09
2022-09-15T04:46:37.892Z,98772.41
2022-09-15T04:49:05.541Z,98757.81
2022-09-15T04:51:32.857Z,98754.69
2022-09-15T04:54:00.235Z,98753.56
2022-09-15T04:56:27.957Z,98738.72
2022-09-15T04:59:03.227Z,98734.47
2022-09-15T05:01:34.114Z,98738.94
2022-09-15T05:04:03.999Z,98735.97
2022-09-15T05:06:32.230Z,98750.69
2022-09-15T05:08:59.720Z,98757.00
2022-09-15T05:11:28.305Z,98753.66
2022-09-15T05:13:55.952Z,98747.69
2022-09-15T05:16:25.181Z,98759.53
2022-09-15T05:18:54.500Z,98774.56
2022-09-15T05:21:23.766Z,98782.19
2022-09-15T05:23:54.175Z,98786.75
2022-09-15T05:26:23.611Z,98800.31
2022-09-15T05:31:24.979Z,98794.56
2022-09-15T05:36:23.403Z,98810.34
2022-09-15T05:38:51.578Z,98801.69
2022-09-15T05:41:19.920Z,98802.66
2022-09-15T05:43:48.415Z,98791.16
2022-09-15T05:46:18.335Z,98804.03
2022-09-15T05:48:46.436Z,98815.31
2022-09-15T05:51:14.559Z,98798.28
2022-09-15T05:53:42.035Z,98794.81
2022-09-15T05:56:14.237Z,98783.69
2022-09-15T05:58:43.368Z,98787.69
2022-09-15T06:01:23.090Z,98784.16
2022-09-15T06:03:51.345Z,98796.19
2022-09-15T06:06:18.955Z,98798.91
2022-09-15T06:08:51.745Z,98811.34
2022-09-15T06:11:24.731Z,98811.63
2022-09-15T06:13:52.310Z,98817.19
2022-09-15T06:16:22.080Z,98811.84
2022-09-15T06:18:51.078Z,98814.63
2022-09-15T06:21:20.913Z,98812.16
2022-09-15T06:23:56.261Z,98811.97
2022-09-15T06:26:23.896Z,98825.13
2022-09-15T06:29:01.880Z,98841.28
2022-09-15T06:31:31.638Z,98846.38
2022-09-15T06:33:59.825Z,98837.69
2022-09-15T06:36:28.833Z,98827.47
2022-09-15T06:38:57.007Z,98835.16
2022-09-15T06:41:24.716Z,98844.19
2022-09-15T06:43:53.146Z,98854.97
2022-09-15T06:46:23.415Z,98848.94
2022-09-15T06:48:51.996Z,98845.91
2022-09-15T06:51:22.355Z,98847.78
2022-09-15T06:53:50.222Z,98839.38
2022-09-15T06:56:19.876Z,98840.13
2022-09-15T06:58:49.302Z,98840.72
2022-09-15T07:01:25.770Z,98840.19
2022-09-15T07:03:53.194Z,98840.88
2022-09-15T07:06:21.085Z,98849.28
2022-09-15T07:08:49.789Z,98849.87
2022-09-15T07:11:18.211Z,98857.94
2022-09-15T07:13:47.315Z,98852.50
2022-09-15T07:16:15.440Z,98868.47
2022-09-15T07:18:43.650Z,98862.78
2022-09-15T07:21:16.732Z,98862.97
2022-09-15T07:23:44.589Z,98859.75
2022-09-15T07:26:14.481Z,98869.22
2022-09-15T07:28:44.256Z,98873.53
2022-09-15T07:31:14.824Z,98866.63
2022-09-15T07:33:42.432Z,98876.81
2022-09-15T07:36:10.238Z,98875.91
2022-09-15T07:38:45.827Z,98874.59
2022-09-15T07:41:21.444Z,98888.63
2022-09-15T07:43:50.498Z,98883.34
2022-09-15T07:46:18.938Z,98870.31
2022-09-15T07:48:47.371Z,98878.47
2022-09-15T07:51:15.676Z,98879.31
2022-09-15T07:53:44.263Z,98879.25
2022-09-15T07:56:11.988Z,98883.75
2022-09-15T07:58:39.814Z,98882.91
2022-09-15T08:01:11.248Z,98890.19
2022-09-15T08:03:42.824Z,98886.59
2022-09-15T08:06:11.014Z,98886.09
2022-09-15T08:08:39.107Z,98874.91
2022-09-15T08:11:18.435Z,98884.56
2022-09-15T08:13:50.993Z,98884.34
2022-09-15T08:16:21.892Z,98881.47
2022-09-15T08:18:49.947Z,98893.31
2022-09-15T08:21:20.335Z,98899.06
2022-09-15T08:23:52.887Z,98891.19
2022-09-15T08:26:20.641Z,98882.94
2022-09-15T08:28:49.074Z,98887.22
2022-09-15T08:31:17.377Z,98887.41
2022-09-15T08:33:49.816Z,98892.91
2022-09-15T08:36:17.851Z,98878.75
2022-09-15T08:38:46.105Z,98869.38
2022-09-15T08:41:23.794Z,98875.88
2022-09-15T08:44:07.865Z,98871.72
2022-09-15T08:46:41.221Z,98865.97
2022-09-15T08:49:51.441Z,98857.06
2022-09-15T08:52:35.690Z,98855.44
2022-09-15T08:55:13.818Z,98853.50
2022-09-15T08:57:41.194Z,98851.41
2022-09-15T09:00:15.133Z,98844.16
2022-09-15T09:02:58.708Z,98835.25
2022-09-15T09:05:34.595Z,98831.94
2022-09-15T09:08:23.090Z,98837.31
2022-09-15T09:10:55.925Z,98836.47
2022-09-15T09:13:35.204Z,98838.53
2022-09-15T09:16:18.082Z,98822.31
2022-09-15T09:19:16.576Z,98835.41
2022-09-15T09:21:47.653Z,98820.63
2022-09-15T09:24:31.440Z,98831.09
2022-09-15T09:26:59.010Z,98823.47
2022-09-15T09:29:33.495Z,98826.38
2022-09-15T09:32:01.903Z,98815.69
2022-09-15T09:34:35.499Z,98820.19
2022-09-15T09:37:15.447Z,98820.00
2022-09-15T09:39:42.815Z,98814.31
2022-09-15T09:42:15.031Z,98821.97
2022-09-15T09:44:42.581Z,98821.44
2022-09-15T09:47:10.202Z,98809.38
2022-09-15T09:49:43.972Z,98803.84
2022-09-15T09:52:12.328Z,98802.09
2022-09-15T09:54:39.589Z,98798.44
2022-09-15T09:57:12.769Z,98789.97
2022-09-15T09:59:46.074Z,98790.91
2022-09-15T10:02:27.206Z,98787.13
2022-09-15T10:05:16.006Z,98768.41
2022-09-15T10:07:43.888Z,98754.59
2022-09-15T10:10:24.922Z,98756.09
2022-09-15T10:12:56.029Z,98752.13
2022-09-15T10:15:25.708Z,98751.56
2022-09-15T10:17:54.091Z,98741.25
2022-09-15T10:20:28.234Z,98737.91
2022-09-15T10:23:05.126Z,98725.06
2022-09-15T10:25:57.580Z,98714.38
2022-09-15T10:28:25.895Z,98710.75
2022-09-15T10:31:10.715Z,98711.34
2022-09-15T10:33:44.910Z,98708.16
2022-09-15T10:36:15.046Z,98714.97
2022-09-15T10:38:45.817Z,98709.38
2022-09-15T10:41:27.119Z,98721.72
2022-09-15T10:44:09.748Z,98719.75
2022-09-15T10:46:48.898Z,98725.75
2022-09-15T10:49:34.752Z,98720.13
2022-09-15T10:52:18.379Z,98723.31
2022-09-15T10:55:02.014Z,98729.28
2022-09-15T10:58:06.511Z,98734.47
2022-09-15T11:00:50.348Z,98730.69
2022-09-15T11:03:27.483Z,98734.22
2022-09-15T11:06:13.298Z,98725.91
2022-09-15T11:09:16.197Z,98725.34
2022-09-15T11:11:56.132Z,98728.66
2022-09-15T11:14:29.573Z,98721.06
2022-09-15T11:17:34.532Z,98719.03
2022-09-15T11:20:18.079Z,98716.00
2022-09-15T11:22:55.148Z,98716.84
2022-09-15T11:25:25.332Z,98716.81
2022-09-15T11:28:01.313Z,98719.56
2022-09-15T11:30:50.669Z,98724.81
2022-09-15T11:33:21.818Z,98720.56
2022-09-15T11:36:31.344Z,98704.00
2022-09-15T11:39:12.561Z,98698.03
2022-09-15T11:41:56.397Z,98686.22
2022-09-15T11:44:37.667Z,98682.66
2022-09-15T11:47:05.025Z,98671.56
2022-09-15T11:49:39.137Z,98653.88
2022-09-15T11:52:17.191Z,98652.06
2022-09-15T11:54:48.741Z,98641.72
2022-09-15T11:57:25.634Z,98637.72
2022-09-15T12:00:15.384Z,98631.22
2022-09-15T12:03:23.385Z,98648.38
2022-09-15T12:06:10.028Z,98664.97
2022-09-15T12:08:43.542Z,98665.94
2022-09-15T12:11:18.745Z,98665.41
2022-09-15T12:13:46.631Z,98659.13
2022-09-15T12:16:14.856Z,98657.63
2022-09-15T12:19:18.608Z,98659.87
2022-09-15T12:21:51.900Z,98648.34
2022-09-15T12:24:25.504Z,98638.09
2022-09-15T12:26:53.122Z,98628.53
2022-09-15T12:29:26.450Z,98623.13
2022-09-15T12:32:19.727Z,98625.16
2022-09-15T12:34:57.708Z,98627.84
2022-09-15T12:37:29.182Z,98623.31
2022-09-15T12:39:56.681Z,98629.06
2022-09-15T12:42:26.357Z,98620.91
2022-09-15T12:44:56.737Z,98606.19
2022-09-15T12:47:34.058Z,98597.34
2022-09-15T12:50:16.571Z,98612.97
2022-09-15T12:53:12.677Z,98656.91
2022-09-15T12:55:49.592Z,98697.94
2022-09-15T12:58:20.000Z,98695.66
2022-09-15T13:01:14.280Z,98693.41
2022-09-15T13:03:37.878Z,98680.59
2022-09-15T13:06:10.912Z,98646.16
2022-09-15T13:08:38.140Z,98655.84
2022-09-15T13:11:12.665Z,98641.22
2022-09-15T13:14:11.547Z,98634.47
2022-09-15T13:16:43.759Z,98622.31
2022-09-15T13:19:25.676Z,98624.81
2022-09-15T13:21:59.169Z,98623.03
2022-09-15T13:24:41.854Z,98622.31
2022-09-15T13:27:10.018Z,98626.31
2022-09-15T13:29:44.642Z,98633.12
2022-09-15T13:32:28.040Z,98640.09
2022-09-15T13:35:20.941Z,98651.75
2022-09-15T13:38:25.058Z,98645.97
2022-09-15T13:40:58.345Z,98640.69
2022-09-15T13:43:48.235Z,98630.06
2022-09-15T13:46:34.146Z,98625.66
2022-09-15T13:49:01.696Z,98635.25
2022-09-15T13:51:30.114Z,98653.34
2022-09-15T13:54:01.380Z,98631.31
2022-09-15T13:56:38.945Z,98634.25
2022-09-15T13:59:14.117Z,98639.00
2022-09-15T14:01:43.102Z,98643.59
2022-09-15T14:04:17.014Z,98640.78
2022-09-15T14:06:46.695Z,98649.78
2022-09-15T14:09:16.893Z,98644.00
2022-09-15T14:11:48.001Z,98636.31
2022-09-15T14:14:27.839Z,98629.50
2022-09-15T14:16:56.485Z,98633.34
2022-09-15T14:19:34.158Z,98612.31
2022-09-15T14:22:03.661Z,98609.59
2022-09-15T14:24:32.523Z,98611.63
2022-09-15T14:27:03.375Z,98635.84
2022-09-15T14:29:31.167Z,98640.84
2022-09-15T14:32:01.938Z,98646.91
2022-09-15T14:34:32.191Z,98658.25
2022-09-15T14:37:06.622Z,98668.50
2022-09-15T14:39:37.354Z,98675.13
2022-09-15T14:42:21.803Z,98676.97
2022-09-15T14:47:40.200Z,98684.56
2022-09-15T14:50:17.530Z,98732.75
2022-09-15T14:53:04.070Z,98704.09
2022-09-15T14:55:34.303Z,98663.50
2022-09-15T14:58:06.874Z,98661.91
2022-09-15T15:00:37.879Z,98686.75
2022-09-15T15:03:28.501Z,98696.84
2022-09-15T15:06:12.800Z,98717.22
2022-09-15T15:09:03.250Z,98705.06
2022-09-15T15:11:32.025Z,98696.53
2022-09-15T15:13:59.926Z,98694.06
2022-09-15T15:16:29.327Z,98665.50
2022-09-15T15:18:57.486Z,98641.81
2022-09-15T15:21:41.662Z,98665.34
2022-09-15T15:24:20.703Z,98675.41
2022-09-15T15:26:50.097Z,98684.59
2022-09-15T15:29:45.883Z,98677.28
2022-09-15T15:32:15.678Z,98688.47
2022-09-15T15:34:50.618Z,98695.81
2022-09-15T15:37:25.354Z,98709.28
2022-09-15T15:39:52.705Z,98713.25
2022-09-15T15:42:20.531Z,98713.50
2022-09-15T15:45:12.979Z,98697.53
2022-09-15T15:47:40.547Z,98680.53
2022-09-15T15:50:20.924Z,98671.34
2022-09-15T15:52:49.645Z,98660.66
2022-09-15T15:55:20.668Z,98666.41
2022-09-15T15:57:50.476Z,98658.84
2022-09-15T16:00:21.297Z,98662.72
2022-09-15T16:02:50.781Z,98659.44
2022-09-15T16:05:19.423Z,98643.59
2022-09-15T16:07:47.880Z,98635.31
2022-09-15T16:10:17.600Z,98623.97
2022-09-15T16:12:44.916Z,98607.13
2022-09-15T16:15:18.209Z,98609.19
2022-09-15T16:17:47.015Z,98600.47
2022-09-15T16:20:16.110Z,98596.28
2022-09-15T16:22:43.871Z,98589.13
2022-09-15T16:25:18.546Z,98583.34
2022-09-15T16:27:45.773Z,98567.37
2022-09-15T16:30:13.343Z,98568.94
2022-09-15T16:32:41.294Z,98581.78
2022-09-15T16:35:31.714Z,98598.00
2022-09-15T16:37:59.322Z,98588.97
2022-09-15T16:40:26.742Z,98590.78
2022-09-15T16:42:54.249Z,98615.31
2022-09-15T16:45:26.320Z,98615.66
2022-09-15T16:47:53.660Z,98613.28
2022-09-15T16:50:21.035Z,98625.03
2022-09-15T16:52:48.649Z,98623.81
2022-09-15T16:55:31.262Z,98621.44
2022-09-15T16:57:59.948Z,98635.91
2022-09-15T17:00:29.065Z,98634.53
2022-09-15T17:02:56.738Z,98629.66
2022-09-15T17:05:29.269Z,98637.88
2022-09-15T17:07:56.797Z,98649.50
2022-09-15T17:10:25.064Z,98658.44
2022-09-15T17:12:52.795Z,98668.72
2022-09-15T17:15:27.030Z,98643.75
2022-09-15T17:17:55.123Z,98648.62
2022-09-15T17:20:23.145Z,98647.44
2022-09-15T17:22:51.494Z,98640.53
2022-09-15T17:25:30.301Z,98632.62
2022-09-15T17:27:58.700Z,98631.91
2022-09-15T17:30:29.743Z,98624.69
2022-09-15T17:33:04.137Z,98612.75
2022-09-15T17:35:34.398Z,98610.28
2022-09-15T17:38:02.886Z,98612.94
2022-09-15T17:40:30.575Z,98612.69
2022-09-15T17:42:58.482Z,98616.38
2022-09-15T17:45:27.423Z,98613.31
2022-09-15T17:47:54.900Z,98609.28
2022-09-15T17:50:25.336Z,98605.81
2022-09-15T17:52:52.964Z,98613.00
2022-09-15T17:57:50.142Z,98611.75
2022-09-15T18:00:18.929Z,98618.84
2022-09-15T18:02:51.982Z,98621.25
2022-09-15T18:05:25.192Z,98630.00
2022-09-15T18:07:59.539Z,98635.94
2022-09-15T18:10:28.557Z,98626.31
2022-09-15T18:12:57.140Z,98634.13
2022-09-15T18:15:27.167Z,98632.94
2022-09-15T18:17:56.948Z,98625.75
2022-09-15T18:20:29.364Z,98628.63
2022-09-15T18:22:57.218Z,98634.25
2022-09-15T18:25:31.252Z,98655.25
2022-09-15T18:27:59.897Z,98647.59
2022-09-15T18:30:31.246Z,98647.88
2022-09-15T18:32:59.513Z,98655.38
2022-09-15T18:35:27.254Z,98646.22
2022-09-15T18:37:59.255Z,98651.13
2022-09-15T18:40:27.935Z,98660.78
2022-09-15T18:42:56.729Z,98652.50
2022-09-15T18:45:24.296Z,98641.81
2022-09-15T18:47:52.630Z,98631.19
2022-09-15T18:50:22.691Z,98639.59
2022-09-15T18:52:50.125Z,98647.28
2022-09-15T18:55:20.160Z,98642.19
2022-09-15T18:57:48.890Z,98639.91
2022-09-15T19:00:24.549Z,98648.69
2022-09-15T19:03:02.668Z,98654.44
2022-09-15T19:05:30.476Z,98658.94
2022-09-15T19:07:58.640Z,98660.81
2022-09-15T19:10:27.276Z,98666.31
2022-09-15T19:12:55.003Z,98651.78
2022-09-15T19:15:24.083Z,98657.66
2022-09-15T19:17:51.955Z,98653.72
2022-09-15T19:20:19.585Z,98663.19
2022-09-15T19:22:47.827Z,98675.19
2022-09-15T19:25:15.659Z,98678.94
2022-09-15T19:27:43.140Z,98690.19
2022-09-15T19:30:12.172Z,98687.53
2022-09-15T19:32:40.805Z,98695.00
2022-09-15T19:35:09.298Z,98691.16
2022-09-15T19:37:38.784Z,98696.44
2022-09-15T19:40:10.167Z,98698.75
2022-09-15T19:42:39.118Z,98692.59
2022-09-15T19:45:07.658Z,98693.28
2022-09-15T19:47:35.647Z,98685.09
2022-09-15T19:50:05.687Z,98692.44
2022-09-15T19:52:33.288Z,98698.09
2022-09-15T19:55:00.668Z,98694.66
2022-09-15T19:57:28.377Z,98693.97
2022-09-15T19:59:55.751Z,98694.06
2022-09-15T20:02:23.102Z,98686.38
2022-09-15T20:05:09.061Z,98699.25
2022-09-15T20:07:36.473Z,98703.06
2022-09-15T20:10:04.978Z,98706.66
2022-09-15T20:12:32.240Z,98713.78
2022-09-15T20:14:59.510Z,98720.06
2022-09-15T20:17:27.782Z,98729.06
2022-09-15T20:19:55.173Z,98734.91
2022-09-15T20:22:22.885Z,98732.81
2022-09-15T20:24:51.552Z,98729.03
2022-09-15T20:27:18.907Z,98738.06
2022-09-15T20:29:46.204Z,98741.75
2022-09-15T20:34:59.180Z,98742.87
2022-09-15T20:37:27.325Z,98746.25
2022-09-15T20:39:55.189Z,98739.12
2022-09-15T20:42:22.681Z,98744.75
2022-09-15T20:44:50.244Z,98745.63
2022-09-15T20:47:17.803Z,98749.75
2022-09-15T20:49:45.104Z,98757.59
2022-09-15T20:52:12.699Z,98769.94
2022-09-15T20:54:40.609Z,98762.47
2022-09-15T20:57:08.898Z,98763.38
2022-09-15T20:59:37.164Z,98772.63
2022-09-15T21:02:06.044Z,98770.81
2022-09-15T21:04:33.751Z,98771.50
2022-09-15T21:07:01.348Z,98775.84
2022-09-15T21:09:28.823Z,98772.53
2022-09-15T21:11:56.199Z,98771.28
2022-09-15T21:14:24.472Z,98772.63
2022-09-15T21:16:51.829Z,98765.94
2022-09-15T21:19:19.192Z,98772.78
2022-09-15T21:21:46.766Z,98775.06
2022-09-15T21:24:14.075Z,98778.50
2022-09-15T21:27:00.387Z,98779.75
2022-09-15T21:29:28.762Z,98763.31
2022-09-15T21:31:56.246Z,98768.00
2022-09-15T21:34:24.008Z,98769.53
2022-09-15T21:36:53.538Z,98776.34
2022-09-15T21:39:21.407Z,98778.97
2022-09-15T21:41:48.757Z,98784.19
2022-09-15T21:44:16.396Z,98781.94
2022-09-15T21:46:44.967Z,98787.22
2022-09-15T21:49:12.271Z,98791.88
2022-09-15T21:51:39.933Z,98796.09
2022-09-15T21:54:07.250Z,98813.00
2022-09-15T21:56:34.577Z,98813.47
2022-09-15T21:59:02.906Z,98815.81
2022-09-15T22:01:31.890Z,98831.84
2022-09-15T22:04:01.288Z,98840.34
2022-09-15T22:06:34.296Z,98840.34
2022-09-15T22:09:05.223Z,98848.69
2022-09-15T22:11:33.364Z,98848.91
2022-09-15T22:14:02.825Z,98841.66
2022-09-15T22:16:30.566Z,98845.03
2022-09-15T22:18:58.003Z,98847.69
2022-09-15T22:21:28.383Z,98847.22
2022-09-15T22:23:56.923Z,98849.84
2022-09-15T22:26:26.787Z,98848.06
2022-09-15T22:28:54.679Z,98849.81
2022-09-15T22:31:23.631Z,98843.81
2022-09-15T22:33:51.581Z,98855.47
2022-09-15T22:36:25.141Z,98858.34
2022-09-15T22:38:56.210Z,98862.91
2022-09-15T22:41:25.838Z,98870.94
2022-09-15T22:43:53.153Z,98869.06
2022-09-15T22:46:21.002Z,98872.06
2022-09-15T22:48:48.434Z,98875.38
2022-09-15T22:51:16.012Z,98881.63
2022-09-15T22:53:43.631Z,98896.34
2022-09-15T22:56:17.152Z,98900.75
2022-09-15T22:58:44.698Z,98904.19
2022-09-15T23:01:18.203Z,98906.44
2022-09-15T23:03:52.861Z,98914.41
2022-09-15T23:06:21.131Z,98927.28
2022-09-15T23:08:57.245Z,98923.34
2022-09-15T23:11:25.742Z,98919.28
2022-09-15T23:13:53.946Z,98923.12
2022-09-15T23:16:23.121Z,98925.87
2022-09-15T23:18:51.034Z,98929.47
2022-09-15T23:21:18.922Z,98931.97
2022-09-15T23:23:48.862Z,98928.25
2022-09-15T23:26:18.511Z,98927.25
2022-09-15T23:28:46.253Z,98929.13
2022-09-15T23:31:13.817Z,98935.03
2022-09-15T23:33:41.657Z,98939.25
2022-09-15T23:36:12.079Z,98929.69
2022-09-15T23:38:40.798Z,98929.91
2022-09-15T23:41:08.726Z,98932.56
2022-09-15T23:43:36.592Z,98935.53
2022-09-15T23:46:04.417Z,98934.19
2022-09-15T23:48:32.503Z,98924.53
2022-09-15T23:51:00.382Z,98919.00
2022-09-15T23:53:28.248Z,98914.62
2022-09-15T23:55:55.621Z,98919.84
2022-09-15T23:58:23.251Z,98924.94
